Time;durP1;ratioP1;P1;durP2;ratioP2;P2;SDS_P1;SDS_P2;PMS_P1;PMS_P2;Temp;Humidity;BMP_temperature;BMP_pressure;BME280_temperature;BME280_humidity;BME280_pressure;Samples;Min_cycle;Max_cycle;Signal;HPM_P1;HPM_P2
2022/01/05 00:02:09;;;;;;;1.48;0.75;;;5.80;99.90;;;;;;5038601;28;20022;-79
2022/01/05 00:04:35;;;;;;;0.98;0.80;;;5.80;99.90;;;;;;5039888;28;20033;-77
2022/01/05 00:07:04;;;;;;;0.77;0.70;;;5.80;99.90;;;;;;5036768;28;20037;-78
2022/01/05 00:09:30;;;;;;;0.82;0.70;;;5.80;99.90;;;;;;5035808;28;20057;-76
2022/01/05 00:11:56;;;;;;;0.47;0.47;;;5.80;99.90;;;;;;5034258;28;20159;-77
2022/01/05 00:14:21;;;;;;;1.30;1.13;;;5.80;99.90;;;;;;5034406;28;20488;-76
2022/01/05 00:16:47;;;;;;;1.90;0.60;;;5.80;99.90;;;;;;5033560;28;20052;-78
2022/01/05 00:19:12;;;;;;;0.85;0.77;;;5.90;99.90;;;;;;5036619;28;20049;-77
2022/01/05 00:21:40;;;;;;;0.60;0.60;;;5.90;99.90;;;;;;5037355;28;20104;-76
2022/01/05 00:24:06;;;;;;;0.50;0.50;;;5.90;99.90;;;;;;5038481;28;20088;-76
2022/01/05 00:26:32;;;;;;;0.98;0.68;;;5.90;99.90;;;;;;5036210;28;20496;-77
2022/01/05 00:28:58;;;;;;;0.43;0.43;;;5.90;99.90;;;;;;5036032;28;20469;-76
2022/01/05 00:31:24;;;;;;;0.55;0.40;;;6.00;99.90;;;;;;5036986;28;20024;-77
2022/01/05 00:33:50;;;;;;;0.60;0.60;;;6.00;99.90;;;;;;5036459;28;20033;-77
2022/01/05 00:36:16;;;;;;;0.50;0.50;;;5.90;99.90;;;;;;5036953;28;20534;-77
2022/01/05 00:38:42;;;;;;;0.40;0.40;;;6.00;99.90;;;;;;5036575;28;20022;-77
2022/01/05 00:41:08;;;;;;;0.30;0.30;;;5.90;99.90;;;;;;5038039;28;20026;-76
2022/01/05 00:43:33;;;;;;;0.50;0.40;;;5.90;99.90;;;;;;5037673;28;20033;-77
2022/01/05 00:45:59;;;;;;;0.80;0.65;;;5.90;99.90;;;;;;5038183;28;20025;-77
2022/01/05 00:48:25;;;;;;;27.13;12.50;;;5.90;99.90;;;;;;5037986;28;20061;-78
2022/01/05 00:50:50;;;;;;;1.13;0.50;;;5.90;99.90;;;;;;5039028;28;20025;-77
2022/01/05 00:53:16;;;;;;;0.60;0.60;;;5.90;99.90;;;;;;5037628;28;20033;-77
2022/01/05 00:55:41;;;;;;;0.30;0.30;;;5.90;99.90;;;;;;5038825;28;20061;-77
2022/01/05 00:58:07;;;;;;;0.35;0.35;;;5.90;99.90;;;;;;5037563;28;20105;-77
2022/01/05 01:00:33;;;;;;;0.50;0.30;;;5.90;99.90;;;;;;5036729;28;20437;-77
2022/01/05 01:02:59;;;;;;;0.52;0.47;;;5.80;99.90;;;;;;5038188;28;20037;-78
2022/01/05 01:05:24;;;;;;;0.70;0.50;;;5.80;99.90;;;;;;5037755;28;20334;-77
2022/01/05 01:07:50;;;;;;;0.40;0.40;;;5.80;99.90;;;;;;5037712;28;20021;-77
2022/01/05 01:10:16;;;;;;;0.30;0.30;;;5.80;99.90;;;;;;5037456;28;20037;-77
2022/01/05 01:12:41;;;;;;;0.40;0.40;;;5.80;99.90;;;;;;5037049;28;20076;-78
2022/01/05 01:15:10;;;;;;;0.47;0.35;;;5.90;99.90;;;;;;5038046;28;20029;-79
2022/01/05 01:17:35;;;;;;;0.52;0.30;;;5.90;99.90;;;;;;5035595;28;20034;-78
2022/01/05 01:20:01;;;;;;;1.40;0.40;;;5.90;99.90;;;;;;5036827;28;20085;-77
2022/01/05 01:22:29;;;;;;;0.30;0.30;;;5.90;99.90;;;;;;5036654;28;20049;-77
2022/01/05 01:24:55;;;;;;;0.47;0.35;;;5.90;99.90;;;;;;5035954;28;20040;-77
2022/01/05 01:27:20;;;;;;;0.47;0.40;;;5.90;99.90;;;;;;5036874;28;20029;-76
2022/01/05 01:29:46;;;;;;;0.25;0.20;;;5.90;99.90;;;;;;5037840;28;20108;-77
2022/01/05 01:32:12;;;;;;;0.20;0.20;;;6.00;99.90;;;;;;5036196;28;20025;-76
2022/01/05 01:34:37;;;;;;;1.13;0.40;;;6.00;99.90;;;;;;5036598;28;20029;-77
2022/01/05 01:37:03;;;;;;;0.55;0.40;;;6.00;99.90;;;;;;5034094;28;20469;-77
2022/01/05 01:39:29;;;;;;;0.35;0.32;;;6.00;99.90;;;;;;5040992;28;20097;-77
2022/01/05 01:41:55;;;;;;;0.57;0.30;;;6.00;99.90;;;;;;5033904;28;20559;-77
2022/01/05 01:44:21;;;;;;;0.88;0.30;;;6.00;99.90;;;;;;5034601;28;20021;-77
2022/01/05 01:46:46;;;;;;;0.30;0.30;;;6.00;99.90;;;;;;5037858;28;20048;-76
2022/01/05 01:49:12;;;;;;;0.28;0.28;;;6.00;99.90;;;;;;5036180;28;20030;-77
2022/01/05 01:51:38;;;;;;;0.20;0.20;;;6.20;99.90;;;;;;5035117;28;20025;-77
2022/01/05 01:54:05;;;;;;;0.50;0.40;;;6.20;99.90;;;;;;5033779;28;20017;-77
2022/01/05 01:56:33;;;;;;;0.30;0.30;;;6.10;99.90;;;;;;5034984;28;20033;-77
2022/01/05 01:58:59;;;;;;;0.30;0.30;;;6.10;99.90;;;;;;5035270;28;20061;-77
2022/01/05 02:01:24;;;;;;;0.30;0.30;;;6.10;99.90;;;;;;5035436;28;20022;-77
2022/01/05 02:03:50;;;;;;;0.77;0.32;;;6.10;99.90;;;;;;5033620;28;20028;-77
2022/01/05 02:06:16;;;;;;;0.32;0.30;;;6.10;99.90;;;;;;5035199;28;20167;-77
2022/01/05 02:08:42;;;;;;;0.55;0.30;;;6.10;99.90;;;;;;5034396;28;20025;-77
2022/01/05 02:11:09;;;;;;;0.20;0.20;;;6.30;99.90;;;;;;5033214;28;20091;-77
2022/01/05 02:13:35;;;;;;;0.40;0.40;;;6.20;99.90;;;;;;5034415;28;20032;-77
2022/01/05 02:16:02;;;;;;;2.17;0.30;;;6.20;99.90;;;;;;5034990;28;20033;-77
2022/01/05 02:21:00;;;;;;;0.45;0.45;;;6.30;99.90;;;;;;5034675;28;20029;-78
2022/01/05 02:23:26;;;;;;;0.20;0.20;;;6.30;99.90;;;;;;5034564;28;20096;-78
2022/01/05 02:25:52;;;;;;;0.30;0.30;;;6.20;99.90;;;;;;5033170;28;20018;-77
2022/01/05 02:28:17;;;;;;;0.30;0.30;;;6.20;99.90;;;;;;5051985;28;20026;-77
2022/01/05 02:30:43;;;;;;;0.30;0.30;;;6.30;99.90;;;;;;5052775;28;20051;-76
2022/01/05 02:33:09;;;;;;;0.30;0.28;;;6.30;99.90;;;;;;5047879;28;20034;-77
2022/01/05 02:35:34;;;;;;;0.30;0.30;;;6.30;99.90;;;;;;5036970;28;20112;-77
2022/01/05 02:38:00;;;;;;;0.35;0.30;;;6.30;99.90;;;;;;5034823;28;20029;-77
2022/01/05 02:40:26;;;;;;;1.52;0.50;;;6.30;99.90;;;;;;5034587;28;20026;-77
2022/01/05 02:42:54;;;;;;;0.43;0.20;;;6.30;99.90;;;;;;5033638;28;20035;-77
2022/01/05 02:45:20;;;;;;;0.28;0.28;;;6.40;99.90;;;;;;5035422;28;20435;-78
2022/01/05 02:47:45;;;;;;;1.02;0.32;;;6.40;99.90;;;;;;5041261;28;20048;-77
2022/01/05 02:50:12;;;;;;;0.30;0.30;;;6.30;99.90;;;;;;5040863;28;20462;-77
2022/01/05 02:52:39;;;;;;;0.40;0.40;;;6.30;99.90;;;;;;5042229;28;20053;-77
2022/01/05 02:55:05;;;;;;;0.77;0.30;;;6.30;99.90;;;;;;5043517;28;20033;-77
2022/01/05 02:57:31;;;;;;;0.40;0.40;;;6.40;99.90;;;;;;5037198;28;20048;-76
2022/01/05 02:59:57;;;;;;;0.30;0.30;;;6.30;99.90;;;;;;5035079;28;20113;-76
2022/01/05 03:02:23;;;;;;;0.52;0.45;;;6.30;99.90;;;;;;5034250;28;20459;-76
2022/01/05 03:04:48;;;;;;;0.30;0.30;;;6.30;99.90;;;;;;5032957;28;20025;-76
2022/01/05 03:07:15;;;;;;;1.05;0.30;;;6.40;99.90;;;;;;5033347;28;20025;-76
2022/01/05 03:09:42;;;;;;;0.90;0.40;;;6.40;99.90;;;;;;5033968;28;20056;-76
2022/01/05 03:12:08;;;;;;;0.77;0.40;;;6.40;99.90;;;;;;5032479;28;20500;-77
2022/01/05 03:14:34;;;;;;;0.40;0.40;;;6.40;99.90;;;;;;5033324;28;20031;-76
2022/01/05 03:16:59;;;;;;;0.50;0.40;;;6.40;99.90;;;;;;5034003;28;20037;-77
2022/01/05 03:19:25;;;;;;;0.93;0.60;;;6.30;99.90;;;;;;5032399;28;20059;-76
2022/01/05 03:21:51;;;;;;;0.82;0.70;;;6.30;99.90;;;;;;5032270;28;20477;-77
2022/01/05 03:24:16;;;;;;;0.40;0.40;;;6.20;99.90;;;;;;5031248;28;20179;-77
2022/01/05 03:26:42;;;;;;;0.85;0.38;;;6.20;99.90;;;;;;5033637;28;20600;-77
2022/01/05 03:29:08;;;;;;;1.27;0.30;;;6.10;99.90;;;;;;5032947;28;20032;-77
2022/01/05 03:31:33;;;;;;;0.20;0.20;;;6.10;99.90;;;;;;5032829;28;20032;-77
2022/01/05 03:33:59;;;;;;;0.60;0.60;;;6.20;99.90;;;;;;5033059;28;20034;-77
2022/01/05 03:36:25;;;;;;;0.32;0.30;;;6.30;99.90;;;;;;5033291;28;20034;-77
2022/01/05 03:38:50;;;;;;;0.30;0.30;;;6.40;99.90;;;;;;5032183;28;20031;-77
2022/01/05 03:41:16;;;;;;;2.35;0.85;;;6.30;99.90;;;;;;5033035;28;20040;-77
2022/01/05 03:43:41;;;;;;;0.30;0.30;;;6.30;99.90;;;;;;5033068;28;20036;-76
2022/01/05 03:46:07;;;;;;;0.30;0.30;;;6.20;99.90;;;;;;5037324;28;20026;-77
2022/01/05 03:48:33;;;;;;;0.40;0.20;;;6.20;99.90;;;;;;5032551;28;20022;-76
2022/01/05 03:50:58;;;;;;;0.28;0.28;;;6.20;99.90;;;;;;5033305;28;20501;-76
2022/01/05 03:53:24;;;;;;;0.30;0.30;;;6.20;99.90;;;;;;5032177;28;20500;-77
2022/01/05 03:55:49;;;;;;;0.30;0.30;;;6.30;99.90;;;;;;5036382;28;20104;-77
2022/01/05 03:58:15;;;;;;;0.90;0.73;;;6.30;99.90;;;;;;5036955;28;20499;-76
2022/01/05 04:00:47;;;;;;;0.40;0.20;;;6.40;99.90;;;;;;5036100;28;20119;-77
2022/01/05 04:03:13;;;;;;;0.20;0.20;;;6.30;99.90;;;;;;5036759;28;20026;-76
2022/01/05 04:05:39;;;;;;;0.20;0.20;;;6.30;99.90;;;;;;5037458;28;20489;-77
2022/01/05 04:08:05;;;;;;;0.20;0.20;;;6.20;99.90;;;;;;5036859;28;20052;-76
2022/01/05 04:10:31;;;;;;;0.30;0.20;;;6.30;99.90;;;;;;5036795;28;20381;-77
2022/01/05 04:12:57;;;;;;;0.28;0.28;;;6.30;99.90;;;;;;5037618;28;20281;-77
2022/01/05 04:15:23;;;;;;;0.30;0.30;;;6.20;99.90;;;;;;5055671;28;20031;-77
2022/01/05 04:17:48;;;;;;;0.30;0.30;;;6.20;99.90;;;;;;5049916;28;20044;-76
2022/01/05 04:20:15;;;;;;;0.30;0.20;;;6.20;99.90;;;;;;5057200;28;20025;-78
2022/01/05 04:22:41;;;;;;;0.30;0.30;;;6.20;99.90;;;;;;5058279;28;20028;-77
2022/01/05 04:25:07;;;;;;;0.65;0.40;;;6.30;99.90;;;;;;5059174;28;20081;-76
2022/01/05 04:27:33;;;;;;;1.00;0.20;;;6.30;99.90;;;;;;5059429;28;20068;-77
2022/01/05 04:29:59;;;;;;;0.40;0.30;;;6.20;99.90;;;;;;5059436;28;20022;-75
2022/01/05 04:32:24;;;;;;;0.28;0.28;;;6.20;99.90;;;;;;5045893;28;20025;-77
2022/01/05 04:34:50;;;;;;;0.10;0.10;;;6.20;99.90;;;;;;5040427;28;20025;-78
2022/01/05 04:37:15;;;;;;;0.45;0.30;;;6.20;99.90;;;;;;5038192;28;20104;-76
2022/01/05 04:39:41;;;;;;;0.40;0.40;;;6.10;99.90;;;;;;5053656;28;20410;-77
2022/01/05 04:42:07;;;;;;;0.20;0.20;;;6.10;99.90;;;;;;5055667;28;20029;-77
2022/01/05 04:44:33;;;;;;;0.30;0.30;;;6.10;99.90;;;;;;5057371;28;20022;-77
2022/01/05 04:46:59;;;;;;;0.28;0.28;;;6.00;99.90;;;;;;5057768;28;20038;-76
2022/01/05 04:49:25;;;;;;;0.30;0.30;;;6.00;99.90;;;;;;5044719;28;20039;-77
2022/01/05 04:51:51;;;;;;;0.50;0.28;;;6.00;99.90;;;;;;5039499;28;20520;-77
2022/01/05 04:54:17;;;;;;;0.20;0.20;;;6.00;99.90;;;;;;5036490;28;20056;-77
2022/01/05 04:56:43;;;;;;;0.50;0.50;;;6.00;99.90;;;;;;5038587;28;20033;-78
2022/01/05 04:59:09;;;;;;;0.50;0.50;;;5.90;99.90;;;;;;5049180;28;20029;-77
2022/01/05 05:01:34;;;;;;;0.20;0.20;;;5.90;99.90;;;;;;5038183;28;20029;-77
2022/01/05 05:04:00;;;;;;;0.30;0.30;;;5.90;99.90;;;;;;5037616;28;20028;-77
2022/01/05 05:06:25;;;;;;;0.20;0.20;;;5.80;99.90;;;;;;5037958;28;20048;-77
2022/01/05 05:08:51;;;;;;;0.30;0.30;;;5.80;99.90;;;;;;5036531;28;20075;-77
2022/01/05 05:11:17;;;;;;;0.52;0.30;;;5.80;99.90;;;;;;5036871;28;20037;-77
2022/01/05 05:13:42;;;;;;;0.85;0.30;;;5.80;99.90;;;;;;5036772;28;20504;-78
2022/01/05 05:16:08;;;;;;;1.30;0.40;;;5.80;99.90;;;;;;5035913;28;20110;-76
2022/01/05 05:18:34;;;;;;;0.30;0.30;;;5.90;99.90;;;;;;5036529;28;20366;-76
2022/01/05 05:20:59;;;;;;;0.43;0.43;;;5.90;99.90;;;;;;5036381;28;20076;-77
2022/01/05 05:23:25;;;;;;;4.70;0.32;;;6.00;99.90;;;;;;5037675;28;20049;-77
2022/01/05 05:25:51;;;;;;;0.65;0.50;;;5.40;99.90;;;;;;5037047;28;20033;-77
2022/01/05 05:28:17;;;;;;;0.45;0.45;;;4.50;99.90;;;;;;5036899;28;20032;-77
2022/01/05 05:30:43;;;;;;;0.93;0.60;;;3.90;99.90;;;;;;5035692;28;20032;-77
2022/01/05 05:33:08;;;;;;;0.60;0.60;;;3.50;99.90;;;;;;5036502;28;20082;-78
2022/01/05 05:35:34;;;;;;;0.80;0.80;;;3.30;99.90;;;;;;5036754;28;20030;-77
2022/01/05 05:38:00;;;;;;;1.08;0.82;;;3.30;99.90;;;;;;5034205;28;20033;-77
2022/01/05 05:40:25;;;;;;;0.80;0.80;;;3.10;99.90;;;;;;5036429;28;20067;-80
2022/01/05 05:42:52;;;;;;;0.80;0.80;;;3.00;99.90;;;;;;5038326;28;20033;-77
2022/01/05 05:45:18;;;;;;;0.75;0.60;;;2.90;99.90;;;;;;5036901;28;20115;-77
2022/01/05 05:47:44;;;;;;;1.20;1.10;;;2.80;99.90;;;;;;5036114;28;20078;-77
2022/01/05 05:50:12;;;;;;;1.23;0.98;;;2.80;99.90;;;;;;5036630;28;20026;-77
2022/01/05 05:52:38;;;;;;;1.17;1.08;;;2.80;99.90;;;;;;5037122;28;20022;-78
2022/01/05 05:55:04;;;;;;;0.60;0.60;;;2.80;99.90;;;;;;5037141;28;20392;-77
2022/01/05 05:57:29;;;;;;;3.08;0.93;;;2.80;99.90;;;;;;5036375;28;20029;-77
2022/01/05 05:59:55;;;;;;;0.70;0.70;;;2.80;99.90;;;;;;5039083;28;20440;-77
2022/01/05 06:02:20;;;;;;;1.58;1.05;;;2.80;99.90;;;;;;5039261;28;20396;-76
2022/01/05 06:04:46;;;;;;;1.20;1.10;;;2.80;99.90;;;;;;5040577;28;20026;-76
2022/01/05 06:07:11;;;;;;;1.52;1.10;;;2.80;99.90;;;;;;5038936;28;20026;-77
2022/01/05 06:09:37;;;;;;;1.38;1.13;;;2.80;99.90;;;;;;5036515;28;20044;-77
2022/01/05 06:12:03;;;;;;;2.88;1.25;;;2.90;99.90;;;;;;5037257;28;20021;-77
2022/01/05 06:14:28;;;;;;;0.98;0.90;;;2.90;99.90;;;;;;5034913;28;20104;-77
2022/01/05 06:16:54;;;;;;;1.77;1.27;;;2.90;99.90;;;;;;5034903;28;20473;-77
2022/01/05 06:19:20;;;;;;;1.20;1.10;;;3.00;99.90;;;;;;5036722;28;20343;-77
2022/01/05 06:21:45;;;;;;;1.40;1.30;;;3.00;99.90;;;;;;5034490;28;20060;-78
2022/01/05 06:24:14;;;;;;;1.77;1.08;;;3.10;99.90;;;;;;5035191;28;20029;-77
2022/01/05 06:26:39;;;;;;;4.07;1.30;;;3.20;99.90;;;;;;5036293;28;20025;-77
2022/01/05 06:29:05;;;;;;;1.52;1.42;;;3.20;99.90;;;;;;5035693;28;20098;-77
2022/01/05 06:31:31;;;;;;;2.38;1.60;;;3.20;99.90;;;;;;5040290;28;20497;-77
2022/01/05 06:33:56;;;;;;;1.02;1.00;;;3.20;99.90;;;;;;5042300;28;20029;-77
2022/01/05 06:36:22;;;;;;;2.50;1.00;;;3.30;99.90;;;;;;5053180;28;20026;-77
2022/01/05 06:38:47;;;;;;;1.13;0.98;;;3.30;99.90;;;;;;5040748;28;20039;-77
2022/01/05 06:41:13;;;;;;;1.70;1.20;;;3.30;99.90;;;;;;5034618;28;20024;-77
2022/01/05 06:43:38;;;;;;;1.75;1.20;;;3.30;99.90;;;;;;5032944;28;20040;-77
2022/01/05 06:46:04;;;;;;;1.90;1.02;;;3.40;99.90;;;;;;5034185;28;20056;-77
2022/01/05 06:48:30;;;;;;;1.08;0.98;;;3.40;99.90;;;;;;5034229;28;20416;-78
2022/01/05 06:50:55;;;;;;;1.10;0.90;;;3.40;99.90;;;;;;5034718;28;20047;-77
2022/01/05 06:53:21;;;;;;;2.28;1.20;;;3.40;99.90;;;;;;5035788;28;20030;-77
2022/01/05 06:55:46;;;;;;;1.63;0.95;;;3.40;99.90;;;;;;5033726;28;20453;-78
2022/01/05 06:58:12;;;;;;;1.00;0.90;;;3.40;99.90;;;;;;5035211;28;20029;-77
2022/01/05 07:00:38;;;;;;;1.35;1.25;;;3.20;99.90;;;;;;5035072;28;20067;-78
2022/01/05 07:03:04;;;;;;;1.52;1.10;;;3.20;99.90;;;;;;5034900;28;20473;-77
2022/01/05 07:05:31;;;;;;;1.80;1.38;;;3.20;99.90;;;;;;5035134;28;20026;-77
2022/01/05 07:07:56;;;;;;;1.13;1.00;;;3.20;99.90;;;;;;5034849;28;20026;-77
2022/01/05 07:10:22;;;;;;;1.42;1.05;;;3.20;99.90;;;;;;5035130;28;20103;-77
2022/01/05 07:12:48;;;;;;;3.05;1.17;;;3.30;99.90;;;;;;5039425;28;20030;-77
2022/01/05 07:15:14;;;;;;;2.22;1.20;;;3.20;99.90;;;;;;5033757;28;20079;-77
2022/01/05 07:17:40;;;;;;;1.38;1.00;;;3.20;99.90;;;;;;5033424;28;20032;-77
2022/01/05 07:20:08;;;;;;;2.20;1.23;;;3.20;99.90;;;;;;5036988;28;20022;-78
2022/01/05 07:22:34;;;;;;;3.30;1.05;;;3.10;99.90;;;;;;5035548;28;20025;-77
2022/01/05 07:25:00;;;;;;;1.50;1.40;;;3.30;99.90;;;;;;5035316;28;20056;-77
2022/01/05 07:27:26;;;;;;;2.72;1.77;;;3.20;99.90;;;;;;5036628;28;20025;-77
2022/01/05 07:29:52;;;;;;;1.10;0.90;;;3.30;99.90;;;;;;5037006;28;20085;-76
2022/01/05 07:32:18;;;;;;;1.35;0.98;;;3.20;99.90;;;;;;5039434;28;20053;-78
2022/01/05 07:34:43;;;;;;;1.63;0.90;;;3.30;99.90;;;;;;5040790;28;20029;-77
2022/01/05 07:37:12;;;;;;;1.23;0.82;;;3.30;99.90;;;;;;5040257;28;20150;-77
2022/01/05 07:39:38;;;;;;;2.15;1.15;;;3.30;99.90;;;;;;5037781;28;20040;-77
2022/01/05 07:42:04;;;;;;;2.13;1.08;;;3.30;99.90;;;;;;5039709;28;21084;-78
2022/01/05 07:44:29;;;;;;;2.25;1.05;;;3.30;99.90;;;;;;5037236;28;20029;-77
2022/01/05 07:46:55;;;;;;;1.63;1.52;;;3.30;99.90;;;;;;5038523;28;20030;-77
2022/01/05 07:49:21;;;;;;;2.85;1.20;;;3.30;99.90;;;;;;5038578;28;20025;-76
2022/01/05 07:51:47;;;;;;;3.65;2.95;;;3.30;99.90;;;;;;5038854;28;20057;-77
2022/01/05 07:54:12;;;;;;;1.55;1.00;;;3.30;99.90;;;;;;5038010;28;20053;-77
2022/01/05 07:56:38;;;;;;;1.42;1.33;;;3.30;99.90;;;;;;5038319;28;20037;-77
2022/01/05 07:59:04;;;;;;;2.78;1.08;;;3.20;99.90;;;;;;5039726;28;20025;-77
2022/01/05 08:01:29;;;;;;;3.45;1.52;;;3.20;99.90;;;;;;5036758;28;20029;-77
2022/01/05 08:03:55;;;;;;;3.60;1.42;;;3.20;99.90;;;;;;5036801;28;20112;-78
2022/01/05 08:06:21;;;;;;;6.18;1.35;;;3.20;99.90;;;;;;5037829;28;20120;-78
2022/01/05 08:08:48;;;;;;;3.00;1.70;;;3.10;99.90;;;;;;5038327;28;20033;-78
2022/01/05 08:11:14;;;;;;;4.32;1.50;;;3.10;99.90;;;;;;5038775;28;20025;-78
2022/01/05 08:13:40;;;;;;;3.17;1.38;;;3.10;99.90;;;;;;5036847;28;20079;-77
2022/01/05 08:16:05;;;;;;;4.30;1.98;;;3.00;99.90;;;;;;5038237;28;20029;-77
2022/01/05 08:18:31;;;;;;;3.03;1.40;;;3.00;99.90;;;;;;5036844;28;20026;-77
2022/01/05 08:20:57;;;;;;;5.38;1.92;;;3.00;99.90;;;;;;5036830;28;20017;-78
2022/01/05 08:23:23;;;;;;;7.20;1.42;;;3.10;99.90;;;;;;5036160;28;20028;-77
2022/01/05 08:25:51;;;;;;;5.10;1.58;;;3.00;99.90;;;;;;5035953;28;20021;-77
2022/01/05 08:28:17;;;;;;;4.53;1.70;;;3.10;99.90;;;;;;5036167;28;20113;-77
2022/01/05 08:30:46;;;;;;;2.90;2.17;;;3.00;99.90;;;;;;5035761;28;20036;-77
2022/01/05 08:33:15;;;;;;;4.03;1.90;;;3.00;99.90;;;;;;5036299;28;20068;-77
2022/01/05 08:35:41;;;;;;;4.07;1.58;;;3.00;99.90;;;;;;5036528;28;20021;-76
2022/01/05 08:38:07;;;;;;;6.00;1.95;;;3.00;99.90;;;;;;5035429;28;20040;-77
2022/01/05 08:40:34;;;;;;;3.90;1.58;;;3.00;99.90;;;;;;5036942;28;20081;-77
2022/01/05 08:43:00;;;;;;;2.60;1.48;;;2.90;99.90;;;;;;5058089;22;20060;-72
2022/01/05 08:45:26;;;;;;;3.90;1.67;;;2.90;99.90;;;;;;5025789;28;20022;-74
2022/01/05 08:47:53;;;;;;;1.20;1.10;;;2.90;99.90;;;;;;5016613;28;20394;-74
2022/01/05 08:50:22;;;;;;;3.25;1.63;;;2.90;99.90;;;;;;5015466;28;20018;-74
2022/01/05 08:52:48;;;;;;;2.00;1.80;;;2.80;99.90;;;;;;5015622;28;20026;-72
2022/01/05 08:55:16;;;;;;;3.80;1.88;;;2.80;99.90;;;;;;5030390;28;20103;-73
2022/01/05 08:57:42;;;;;;;5.53;2.75;;;2.80;99.90;;;;;;5015618;28;20030;-73
2022/01/05 09:00:09;;;;;;;4.00;2.17;;;2.70;99.90;;;;;;5014660;28;20536;-73
2022/01/05 09:02:35;;;;;;;3.97;1.63;;;2.80;99.90;;;;;;5032650;28;20030;-74
2022/01/05 09:05:01;;;;;;;3.80;1.92;;;2.80;99.90;;;;;;5026697;28;20060;-72
2022/01/05 09:07:26;;;;;;;4.65;2.75;;;2.80;99.90;;;;;;5025343;28;20065;-72
2022/01/05 09:09:52;;;;;;;4.35;1.70;;;2.90;99.90;;;;;;5020970;28;20126;-73
2022/01/05 09:12:17;;;;;;;2.80;1.60;;;3.00;99.90;;;;;;5033673;28;20033;-73
2022/01/05 09:14:43;;;;;;;4.10;1.88;;;3.10;99.90;;;;;;5035286;28;20041;-74
2022/01/05 09:17:09;;;;;;;2.70;1.30;;;3.20;99.90;;;;;;5031706;28;20026;-74
2022/01/05 09:19:35;;;;;;;4.55;1.42;;;3.20;99.90;;;;;;5041265;28;20026;-74
2022/01/05 09:22:02;;;;;;;5.00;1.95;;;3.30;99.90;;;;;;5032569;28;20037;-73
2022/01/05 09:24:28;;;;;;;5.30;1.90;;;3.20;99.90;;;;;;5023818;28;20132;-72
2022/01/05 09:26:56;;;;;;;3.25;1.95;;;3.20;99.90;;;;;;5021205;28;20029;-72
2022/01/05 09:29:23;;;;;;;3.60;2.17;;;3.30;99.90;;;;;;5019759;28;20034;-72
2022/01/05 09:31:50;;;;;;;4.70;1.42;;;3.30;99.90;;;;;;5018508;28;20390;-72
2022/01/05 09:34:16;;;;;;;4.70;2.00;;;3.50;99.90;;;;;;5029494;28;20507;-72
2022/01/05 09:36:47;;;;;;;3.58;1.52;;;3.50;99.90;;;;;;5027529;28;20049;-74
2022/01/05 09:41:56;;;;;;;3.53;1.92;;;3.60;99.90;;;;;;5014503;28;20424;-74
2022/01/05 09:44:29;;;;;;;6.85;1.95;;;3.60;99.90;;;;;;5014412;28;20046;-73
2022/01/05 09:47:08;;;;;;;5.03;2.05;;;3.60;99.90;;;;;;5014370;28;20046;-73
2022/01/05 09:49:36;;;;;;;5.10;1.90;;;3.60;99.90;;;;;;5029823;28;20042;-73
2022/01/05 09:52:08;;;;;;;4.60;2.15;;;3.50;99.90;;;;;;5012566;28;20555;-73
2022/01/05 09:54:35;;;;;;;3.97;1.55;;;3.60;99.90;;;;;;5014516;28;20026;-73
2022/01/05 09:57:02;;;;;;;7.55;2.13;;;3.50;99.90;;;;;;5014381;28;20477;-74
2022/01/05 09:59:30;;;;;;;5.25;2.03;;;3.60;99.90;;;;;;5014383;28;20509;-73
2022/01/05 10:01:55;;;;;;;4.93;1.40;;;3.50;99.90;;;;;;5015069;28;20042;-74
2022/01/05 10:04:21;;;;;;;4.18;1.67;;;3.40;99.90;;;;;;5014506;28;20026;-74
2022/01/05 10:06:47;;;;;;;4.93;1.48;;;3.30;99.90;;;;;;5014729;28;20478;-73
2022/01/05 10:09:14;;;;;;;4.50;1.48;;;3.20;99.90;;;;;;5014519;28;20037;-73
2022/01/05 10:11:40;;;;;;;6.05;2.17;;;3.20;99.90;;;;;;5014369;28;20573;-73
2022/01/05 10:14:08;;;;;;;6.35;1.60;;;3.20;99.90;;;;;;5014754;28;20066;-73
2022/01/05 10:16:34;;;;;;;4.88;1.90;;;3.30;99.90;;;;;;5014374;28;20045;-73
2022/01/05 10:19:00;;;;;;;3.50;1.35;;;3.20;99.90;;;;;;5014201;28;20033;-73
2022/01/05 10:21:34;;;;;;;4.80;2.33;;;3.40;99.90;;;;;;5014041;28;20053;-73
2022/01/05 10:24:00;;;;;;;5.40;1.60;;;3.40;99.90;;;;;;5014631;28;20030;-73
2022/01/05 10:26:29;;;;;;;3.70;1.75;;;3.30;99.90;;;;;;5013404;28;20022;-73
2022/01/05 10:29:01;;;;;;;7.97;1.50;;;3.30;99.90;;;;;;5014562;28;20026;-74
2022/01/05 10:31:38;;;;;;;5.00;1.65;;;3.20;99.90;;;;;;5014057;28;20026;-73
2022/01/05 10:34:22;;;;;;;6.57;1.88;;;3.20;99.90;;;;;;5014275;28;20034;-73
2022/01/05 10:36:52;;;;;;;6.47;1.77;;;3.20;99.90;;;;;;5016838;28;20026;-73
2022/01/05 10:39:22;;;;;;;8.32;2.53;;;3.30;99.90;;;;;;5028065;28;20029;-72
2022/01/05 10:41:49;;;;;;;6.13;1.52;;;3.30;99.90;;;;;;5026764;28;20069;-74
2022/01/05 10:44:19;;;;;;;5.43;2.33;;;3.30;99.90;;;;;;5021016;28;20033;-73
2022/01/05 10:46:52;;;;;;;5.07;2.08;;;3.40;99.90;;;;;;4998397;28;20543;-73
2022/01/05 10:49:31;;;;;;;5.35;1.40;;;3.50;99.90;;;;;;5030202;28;20401;-74
2022/01/05 10:52:00;;;;;;;6.10;1.70;;;3.70;99.90;;;;;;5014896;28;20022;-74
2022/01/05 10:54:28;;;;;;;5.13;2.28;;;4.00;99.90;;;;;;5016147;28;20022;-73
2022/01/05 10:57:11;;;;;;;7.85;1.92;;;4.30;99.90;;;;;;5016215;28;20026;-72
2022/01/05 10:59:42;;;;;;;5.93;1.55;;;4.10;99.90;;;;;;5016113;28;20049;-72
2022/01/05 11:02:26;;;;;;;3.45;1.40;;;4.20;99.90;;;;;;5014328;28;20025;-73
2022/01/05 11:05:13;;;;;;;5.05;1.38;;;4.40;99.90;;;;;;5014574;28;20406;-73
2022/01/05 11:07:41;;;;;;;5.88;1.95;;;4.20;99.90;;;;;;5015267;28;20033;-73
2022/01/05 11:10:12;;;;;;;2.90;1.55;;;4.10;99.90;;;;;;5015227;28;20486;-73
2022/01/05 11:12:42;;;;;;;8.50;1.95;;;3.90;99.90;;;;;;5014018;28;20030;-74
2022/01/05 11:15:25;;;;;;;6.20;1.58;;;3.80;99.90;;;;;;5029087;28;20033;-74
2022/01/05 11:18:19;;;;;;;4.43;1.70;;;3.90;99.90;;;;;;5013888;28;20034;-73
2022/01/05 11:20:46;;;;;;;7.03;2.70;;;3.80;99.90;;;;;;5013145;28;20557;-74
2022/01/05 11:23:12;;;;;;;4.97;1.60;;;4.10;99.90;;;;;;5014025;28;20030;-74
2022/01/05 11:25:39;;;;;;;9.05;1.90;;;4.30;99.90;;;;;;5014491;28;20014;-74
2022/01/05 11:28:06;;;;;;;7.18;2.95;;;4.10;99.90;;;;;;5012383;28;20030;-74
2022/01/05 11:30:33;;;;;;;3.83;1.42;;;3.90;99.90;;;;;;5013586;28;20488;-73
2022/01/05 11:32:59;;;;;;;6.10;2.08;;;3.80;99.90;;;;;;5013055;28;20026;-73
2022/01/05 11:35:25;;;;;;;8.20;2.10;;;3.80;99.90;;;;;;5013490;28;20037;-73
2022/01/05 11:37:51;;;;;;;7.15;1.50;;;3.90;99.90;;;;;;5013015;28;20030;-73
2022/01/05 11:40:18;;;;;;;5.05;1.60;;;4.00;99.90;;;;;;5013136;28;20022;-73
2022/01/05 11:42:48;;;;;;;9.07;1.65;;;4.10;99.90;;;;;;5028020;28;20026;-73
2022/01/05 11:45:29;;;;;;;4.55;1.60;;;4.10;99.90;;;;;;5012846;28;20022;-73
2022/01/05 11:48:11;;;;;;;;;;;3.90;99.90;;;;;;5013486;28;20033;-73
2022/01/05 11:50:44;;;;;;;4.75;1.90;;;3.80;99.90;;;;;;5012604;28;20348;-73
2022/01/05 11:53:09;;;;;;;7.43;2.20;;;3.70;99.90;;;;;;5012733;28;20059;-73
2022/01/05 11:55:57;;;;;;;8.27;1.73;;;3.60;99.90;;;;;;5012760;28;20062;-72
2022/01/05 11:58:26;;;;;;;5.05;1.48;;;3.70;99.90;;;;;;5013262;28;20026;-74
2022/01/05 12:01:16;;;;;;;4.53;1.92;;;3.80;99.90;;;;;;5014101;28;20298;-74
2022/01/05 12:03:59;;;;;;;5.57;1.55;;;3.90;99.90;;;;;;5013291;28;20113;-73
2022/01/05 12:06:30;;;;;;;5.40;1.70;;;4.00;99.90;;;;;;5012856;28;20386;-73
2022/01/05 12:08:56;;;;;;;;;;;4.40;99.90;;;;;;5028596;28;20030;-73
2022/01/05 12:11:42;;;;;;;7.43;1.30;;;4.50;99.90;;;;;;5013161;28;20377;-73
2022/01/05 12:14:30;;;;;;;6.68;1.42;;;4.40;99.90;;;;;;5012738;28;20037;-72
2022/01/05 12:16:59;;;;;;;4.75;1.50;;;4.50;99.90;;;;;;5016164;28;20071;-73
2022/01/05 12:19:28;;;;;;;8.32;1.83;;;4.40;99.90;;;;;;5018368;28;20489;-73
2022/01/05 12:21:56;;;;;;;4.78;1.40;;;4.30;99.90;;;;;;5019390;28;20030;-73
2022/01/05 12:24:22;;;;;;;4.00;1.15;;;4.40;99.90;;;;;;5018667;28;20067;-74
2022/01/05 12:27:17;;;;;;;3.00;1.30;;;4.40;99.90;;;;;;5033912;28;20022;-73
2022/01/05 12:29:43;;;;;;;4.80;2.97;;;4.10;99.90;;;;;;5036092;28;20045;-74
2022/01/05 12:32:09;;;;;;;7.82;1.60;;;4.00;99.90;;;;;;5050801;28;20034;-73
2022/01/05 12:34:55;;;;;;;7.22;1.63;;;3.90;99.90;;;;;;5034362;28;20052;-73
2022/01/05 12:37:56;;;;;;;7.70;1.60;;;4.00;99.90;;;;;;5022125;28;20053;-73
2022/01/05 12:40:29;;;;;;;6.70;1.42;;;4.00;99.90;;;;;;5016808;28;20405;-73
2022/01/05 12:43:13;;;;;;;7.80;1.40;;;4.00;99.90;;;;;;5031348;28;20030;-75
2022/01/05 12:45:47;;;;;;;6.80;1.83;;;4.10;99.90;;;;;;5016018;28;20472;-73
2022/01/05 12:48:31;;;;;;;6.18;1.65;;;4.40;99.90;;;;;;5015769;28;20037;-73
2022/01/05 12:51:11;;;;;;;5.60;1.88;;;4.60;99.90;;;;;;5015761;28;20105;-73
2022/01/05 12:54:00;;;;;;;3.72;1.48;;;4.80;99.90;;;;;;5032108;28;20030;-73
2022/01/05 12:56:51;;;;;;;4.72;1.92;;;5.10;99.90;;;;;;5031592;28;20030;-73
2022/01/05 12:59:21;;;;;;;6.38;1.63;;;5.10;99.90;;;;;;5031710;28;20033;-72
2022/01/05 13:01:51;;;;;;;7.80;1.30;;;5.10;99.90;;;;;;5016605;28;20029;-73
2022/01/05 13:04:18;;;;;;;5.50;1.50;;;5.10;99.90;;;;;;5018650;28;20022;-73
2022/01/05 13:06:45;;;;;;;4.60;2.28;;;4.80;99.90;;;;;;5032628;28;20037;-72